createdAt,value
2019-03-20T00:01:27.991Z,2.50
2019-03-20T00:04:08.517Z,2.60
2019-03-20T00:06:49.106Z,2.50
2019-03-20T00:09:29.675Z,2.50
2019-03-20T00:12:10.414Z,2.40
2019-03-20T00:14:51.183Z,2.30
2019-03-20T00:17:32.048Z,2.20
2019-03-20T00:20:12.855Z,2.20
2019-03-20T00:22:53.750Z,2.10
2019-03-20T00:25:34.346Z,2.00
2019-03-20T00:28:15.164Z,2.00
2019-03-20T00:30:55.664Z,2.10
2019-03-20T00:33:36.335Z,2.00
2019-03-20T00:36:17.109Z,1.80
2019-03-20T00:38:58.033Z,1.90
2019-03-20T00:41:38.939Z,1.90
2019-03-20T00:44:19.754Z,1.90
2019-03-20T00:47:00.067Z,1.90
2019-03-20T00:49:41.200Z,2.00
2019-03-20T00:52:21.629Z,2.00
2019-03-20T00:55:02.332Z,2.10
2019-03-20T00:57:43.210Z,2.10
2019-03-20T01:00:24.128Z,2.20
2019-03-20T01:03:04.724Z,2.10
2019-03-20T01:05:45.613Z,2.00
2019-03-20T01:08:26.521Z,2.00
2019-03-20T01:11:07.178Z,2.00
2019-03-20T01:13:47.827Z,1.90
2019-03-20T01:16:28.710Z,2.00
2019-03-20T01:19:09.849Z,2.00
2019-03-20T01:21:51.002Z,1.90
2019-03-20T01:24:31.909Z,1.70
2019-03-20T01:27:12.665Z,1.60
2019-03-20T01:29:53.318Z,1.60
2019-03-20T01:32:34.067Z,1.70
2019-03-20T01:35:23.555Z,1.70
2019-03-20T01:37:57.633Z,1.70
2019-03-20T01:40:40.239Z,1.60
2019-03-20T01:43:21.217Z,1.60
2019-03-20T01:46:01.699Z,1.60
2019-03-20T01:48:42.115Z,1.70
2019-03-20T01:51:22.815Z,1.70
2019-03-20T01:54:03.664Z,1.70
2019-03-20T01:56:44.267Z,1.80
2019-03-20T01:59:25.095Z,1.80
2019-03-20T02:02:06.345Z,1.70
2019-03-20T02:04:47.660Z,1.70
2019-03-20T02:07:28.446Z,1.80
2019-03-20T02:10:09.175Z,1.70
2019-03-20T02:12:49.780Z,1.60
2019-03-20T02:15:38.909Z,1.50
2019-03-20T02:18:13.099Z,1.50
2019-03-20T02:20:54.021Z,1.50
2019-03-20T02:23:35.145Z,1.60
2019-03-20T02:26:15.810Z,1.60
2019-03-20T02:28:56.621Z,1.60
2019-03-20T02:31:37.187Z,1.50
2019-03-20T02:34:17.642Z,1.50
2019-03-20T02:36:58.125Z,1.50
2019-03-20T02:39:39.127Z,1.50
2019-03-20T02:42:19.659Z,1.50
2019-03-20T02:45:00.678Z,1.40
2019-03-20T02:47:41.909Z,1.40
2019-03-20T02:50:22.880Z,1.50
2019-03-20T02:53:04.109Z,1.50
2019-03-20T02:55:33.882Z,1.40
2019-03-20T02:58:21.917Z,1.50
2019-03-20T03:01:10.000Z,1.50
2019-03-20T03:03:58.037Z,1.40
2019-03-20T03:06:46.137Z,1.40
2019-03-20T03:09:34.226Z,1.40
2019-03-20T03:12:22.637Z,1.40
2019-03-20T03:15:11.153Z,1.40
2019-03-20T03:17:59.223Z,1.40
2019-03-20T03:20:47.248Z,1.50
2019-03-20T03:23:35.243Z,1.50
2019-03-20T03:26:23.274Z,1.50
2019-03-20T03:29:11.684Z,1.40
2019-03-20T03:31:59.786Z,1.40
2019-03-20T03:34:48.084Z,1.30
2019-03-20T03:37:36.101Z,1.20
2019-03-20T03:40:24.192Z,1.20
2019-03-20T03:43:12.371Z,1.20
2019-03-20T03:46:00.526Z,1.30
2019-03-20T03:48:48.608Z,1.20
2019-03-20T03:51:36.632Z,1.20
2019-03-20T03:54:24.690Z,1.10
2019-03-20T03:57:05.673Z,1.10
2019-03-20T03:59:46.069Z,1.20
2019-03-20T04:02:26.488Z,1.20
2019-03-20T04:05:07.193Z,1.10
2019-03-20T04:07:48.040Z,1.20
2019-03-20T04:10:28.766Z,1.20
2019-03-20T04:13:10.137Z,1.30
2019-03-20T04:15:51.080Z,1.20
2019-03-20T04:18:32.041Z,1.10
2019-03-20T04:21:12.753Z,0.90
2019-03-20T04:23:54.094Z,1.00
2019-03-20T04:26:34.676Z,1.00
2019-03-20T04:29:15.303Z,1.10
2019-03-20T04:31:55.756Z,1.10
2019-03-20T04:34:36.241Z,1.20
2019-03-20T04:37:16.832Z,1.20
2019-03-20T04:39:57.507Z,1.30
2019-03-20T04:42:38.192Z,1.20
2019-03-20T04:45:18.951Z,1.20
2019-03-20T04:47:59.761Z,1.00
2019-03-20T04:50:41.056Z,1.10
2019-03-20T04:53:21.703Z,1.10
2019-03-20T04:56:02.434Z,1.10
2019-03-20T04:58:43.088Z,1.10
2019-03-20T05:01:23.948Z,1.20
2019-03-20T05:04:04.668Z,1.20
2019-03-20T05:06:45.304Z,1.30
2019-03-20T05:09:25.934Z,1.30
2019-03-20T05:12:06.643Z,1.30
2019-03-20T05:14:47.340Z,1.20
2019-03-20T05:17:28.132Z,1.30
2019-03-20T05:20:08.447Z,1.30
2019-03-20T05:22:49.005Z,1.20
2019-03-20T05:25:29.793Z,1.10
2019-03-20T05:28:10.261Z,1.10
2019-03-20T05:30:51.096Z,1.10
2019-03-20T05:33:31.825Z,1.10
2019-03-20T05:36:12.694Z,1.20
2019-03-20T05:38:53.604Z,1.20
2019-03-20T05:41:34.321Z,1.20
2019-03-20T05:44:14.881Z,1.10
2019-03-20T05:46:55.476Z,1.20
2019-03-20T05:49:35.923Z,1.30
2019-03-20T05:52:16.631Z,1.20
2019-03-20T05:54:57.372Z,1.20
2019-03-20T05:57:37.946Z,1.20
2019-03-20T06:00:19.403Z,1.20
2019-03-20T06:03:00.316Z,1.30
2019-03-20T06:05:41.729Z,1.40
2019-03-20T06:08:22.418Z,1.40
2019-03-20T06:11:02.959Z,1.50
2019-03-20T06:13:43.732Z,1.50
2019-03-20T06:16:24.726Z,1.60
2019-03-20T06:19:05.413Z,1.70
2019-03-20T06:21:45.876Z,1.70
2019-03-20T06:24:26.577Z,1.70
2019-03-20T06:27:07.237Z,1.80
2019-03-20T06:29:47.928Z,1.80
2019-03-20T06:32:28.862Z,1.90
2019-03-20T06:35:09.244Z,2.00
2019-03-20T06:37:50.188Z,2.00
2019-03-20T06:40:30.776Z,2.00
2019-03-20T06:43:11.854Z,2.00
2019-03-20T06:45:52.241Z,2.10
2019-03-20T06:48:33.185Z,2.10
2019-03-20T06:51:13.946Z,2.20
2019-03-20T06:53:54.440Z,2.30
2019-03-20T06:56:35.420Z,2.40
2019-03-20T06:59:16.128Z,2.50
2019-03-20T07:01:56.836Z,2.50
2019-03-20T07:04:37.259Z,2.70
2019-03-20T07:07:17.880Z,2.80
2019-03-20T07:09:58.479Z,3.00
2019-03-20T07:12:39.024Z,3.10
2019-03-20T07:15:19.633Z,3.40
2019-03-20T07:18:00.164Z,3.80
2019-03-20T07:20:40.810Z,4.10
2019-03-20T07:23:21.437Z,4.40
2019-03-20T07:26:01.943Z,4.70
2019-03-20T07:28:42.843Z,5.00
2019-03-20T07:31:23.435Z,5.30
2019-03-20T07:34:04.166Z,5.50
2019-03-20T07:36:45.003Z,5.70
2019-03-20T07:39:25.809Z,5.90
2019-03-20T07:42:06.836Z,6.10
2019-03-20T07:44:47.387Z,6.40
2019-03-20T07:47:27.889Z,6.70
2019-03-20T07:50:08.512Z,7.00
2019-03-20T07:52:49.691Z,7.10
2019-03-20T07:55:30.290Z,7.20
2019-03-20T07:58:11.233Z,7.40
2019-03-20T08:00:52.513Z,7.60
2019-03-20T08:03:33.451Z,7.70
2019-03-20T08:06:13.826Z,7.80
2019-03-20T08:08:54.761Z,8.00
2019-03-20T08:11:35.055Z,8.10
2019-03-20T08:14:15.631Z,8.20
2019-03-20T08:16:56.344Z,8.40
2019-03-20T08:19:37.140Z,8.60
2019-03-20T08:22:17.805Z,8.60
2019-03-20T08:24:58.388Z,8.80
2019-03-20T08:27:38.932Z,8.90
2019-03-20T08:30:09.392Z,9.00
2019-03-20T08:32:57.432Z,9.20
2019-03-20T08:35:45.526Z,9.30
2019-03-20T08:38:33.571Z,9.30
2019-03-20T08:41:21.583Z,9.40
2019-03-20T08:44:09.618Z,9.60
2019-03-20T08:46:57.893Z,9.70
2019-03-20T08:49:45.908Z,9.80
2019-03-20T08:52:33.907Z,9.90
2019-03-20T08:55:22.026Z,10.00
2019-03-20T08:58:02.644Z,10.00
2019-03-20T09:00:44.182Z,10.00
2019-03-20T09:03:25.751Z,10.20
2019-03-20T09:06:06.908Z,10.30
2019-03-20T09:08:47.361Z,10.50
2019-03-20T09:11:27.717Z,10.50
2019-03-20T09:14:08.175Z,10.50
2019-03-20T09:16:48.972Z,10.50
2019-03-20T09:19:29.843Z,10.60
2019-03-20T09:22:10.433Z,10.70
2019-03-20T09:24:50.760Z,10.90
2019-03-20T09:27:31.815Z,10.90
2019-03-20T09:30:12.700Z,10.90
2019-03-20T09:32:53.490Z,11.00
2019-03-20T09:35:34.038Z,11.10
2019-03-20T09:38:14.512Z,11.20
2019-03-20T09:40:55.712Z,11.20
2019-03-20T09:43:36.836Z,11.30
2019-03-20T09:46:17.286Z,11.40
2019-03-20T09:48:57.888Z,11.60
2019-03-20T09:51:38.489Z,11.60
2019-03-20T09:54:18.973Z,11.50
2019-03-20T09:56:59.741Z,11.70
2019-03-20T09:59:40.345Z,12.00
2019-03-20T10:02:21.639Z,12.20
2019-03-20T10:05:02.490Z,12.40
2019-03-20T10:07:43.641Z,12.50
2019-03-20T10:10:25.125Z,12.70
2019-03-20T10:13:06.406Z,12.80
2019-03-20T10:15:47.276Z,12.80
2019-03-20T10:18:28.105Z,12.90
2019-03-20T10:21:09.189Z,12.60
2019-03-20T10:23:50.019Z,12.70
2019-03-20T10:26:30.945Z,12.60
2019-03-20T10:29:11.857Z,12.50
2019-03-20T10:31:52.714Z,12.60
2019-03-20T10:34:39.417Z,12.60
2019-03-20T10:37:16.169Z,12.30
2019-03-20T10:39:57.255Z,12.50
2019-03-20T10:42:38.020Z,12.60
2019-03-20T10:45:19.275Z,12.50
2019-03-20T10:48:00.617Z,12.70
2019-03-20T10:50:41.271Z,12.90
2019-03-20T10:53:22.023Z,13.00
2019-03-20T10:56:03.078Z,13.00
2019-03-20T10:58:43.748Z,13.10
2019-03-20T11:01:24.119Z,13.20
2019-03-20T11:04:05.087Z,13.30
2019-03-20T11:06:45.785Z,13.30
2019-03-20T11:09:27.204Z,13.40
2019-03-20T11:12:07.714Z,13.40
2019-03-20T11:14:48.476Z,13.40
2019-03-20T11:17:29.130Z,13.40
2019-03-20T11:20:09.960Z,13.20
2019-03-20T11:22:50.610Z,13.10
2019-03-20T11:25:31.232Z,13.00
2019-03-20T11:28:12.294Z,13.10
2019-03-20T11:30:53.517Z,13.30
2019-03-20T11:33:34.264Z,13.50
2019-03-20T11:36:15.122Z,13.50
2019-03-20T11:38:55.895Z,13.40
2019-03-20T11:41:36.851Z,13.50
2019-03-20T11:44:17.386Z,13.50
2019-03-20T11:46:58.119Z,13.70
2019-03-20T11:49:39.020Z,13.90
2019-03-20T11:52:19.673Z,14.00
2019-03-20T11:55:00.033Z,14.20
2019-03-20T11:57:40.925Z,14.00
2019-03-20T12:00:22.000Z,13.80
2019-03-20T12:03:02.834Z,13.90
2019-03-20T12:05:44.146Z,14.10
2019-03-20T12:08:24.766Z,14.20
2019-03-20T12:11:05.530Z,14.00
2019-03-20T12:13:45.883Z,14.10
2019-03-20T12:16:26.375Z,14.40
2019-03-20T12:19:07.091Z,14.40
2019-03-20T12:21:47.937Z,14.30
2019-03-20T12:24:28.772Z,14.10
2019-03-20T12:27:15.180Z,14.00
2019-03-20T12:29:52.269Z,14.00
2019-03-20T12:32:33.322Z,14.10
2019-03-20T12:35:14.179Z,14.30
2019-03-20T12:37:54.914Z,14.30
2019-03-20T12:40:36.054Z,14.30
2019-03-20T12:43:17.258Z,14.30
2019-03-20T12:45:58.136Z,14.40
2019-03-20T12:48:38.972Z,14.50
2019-03-20T12:51:19.597Z,14.50
2019-03-20T12:54:00.221Z,14.50
2019-03-20T12:56:41.055Z,14.40
2019-03-20T12:59:21.837Z,14.40
2019-03-20T13:02:02.702Z,14.60
2019-03-20T13:04:43.553Z,14.80
2019-03-20T13:07:24.342Z,14.80
2019-03-20T13:10:05.189Z,14.70
2019-03-20T13:12:45.976Z,14.70
2019-03-20T13:15:26.623Z,14.50
2019-03-20T13:18:07.344Z,14.50
2019-03-20T13:20:48.100Z,14.70
2019-03-20T13:23:28.843Z,14.50
2019-03-20T13:26:09.441Z,14.50
2019-03-20T13:28:50.004Z,14.60
2019-03-20T13:31:30.992Z,14.40
2019-03-20T13:34:11.352Z,14.50
2019-03-20T13:36:51.927Z,14.50
2019-03-20T13:39:32.637Z,14.10
2019-03-20T13:42:13.569Z,14.10
2019-03-20T13:44:54.348Z,14.00
2019-03-20T13:47:35.224Z,14.10
2019-03-20T13:50:15.760Z,14.20
2019-03-20T13:52:56.584Z,14.20
2019-03-20T13:55:37.224Z,14.20
2019-03-20T13:58:17.956Z,14.20
2019-03-20T14:00:58.824Z,14.50
2019-03-20T14:03:39.688Z,14.60
2019-03-20T14:06:20.877Z,14.60
2019-03-20T14:09:01.576Z,14.50
2019-03-20T14:11:42.121Z,14.40
2019-03-20T14:14:22.979Z,14.50
2019-03-20T14:17:04.267Z,14.50
2019-03-20T14:19:45.105Z,14.30
2019-03-20T14:22:25.872Z,14.20
2019-03-20T14:25:06.419Z,14.30
2019-03-20T14:27:47.274Z,14.40
2019-03-20T14:30:27.861Z,14.20
2019-03-20T14:33:08.552Z,14.20
2019-03-20T14:35:49.347Z,14.30
2019-03-20T14:38:30.042Z,14.40
2019-03-20T14:41:20.837Z,14.50
2019-03-20T14:43:53.353Z,14.50
2019-03-20T14:46:34.056Z,14.40
2019-03-20T14:49:14.701Z,14.30
2019-03-20T14:51:55.465Z,14.30
2019-03-20T14:54:36.060Z,14.00
2019-03-20T14:57:16.644Z,14.00
2019-03-20T14:59:57.354Z,14.00
2019-03-20T15:02:38.028Z,14.20
2019-03-20T15:05:18.893Z,14.20
2019-03-20T15:07:59.712Z,14.10
2019-03-20T15:10:45.899Z,14.20
2019-03-20T15:13:23.376Z,14.20
2019-03-20T15:16:03.920Z,14.10
2019-03-20T15:18:44.508Z,14.00
2019-03-20T15:21:25.026Z,14.00
2019-03-20T15:24:05.680Z,14.00
2019-03-20T15:26:46.307Z,14.10
2019-03-20T15:29:26.967Z,14.00
2019-03-20T15:32:07.776Z,13.90
2019-03-20T15:34:48.356Z,13.60
2019-03-20T15:37:29.220Z,13.50
2019-03-20T15:40:09.854Z,13.70
2019-03-20T15:42:50.647Z,13.80
2019-03-20T15:45:31.089Z,14.00
2019-03-20T15:48:11.946Z,14.10
2019-03-20T15:50:53.420Z,14.10
2019-03-20T15:53:35.584Z,14.30
2019-03-20T15:56:16.904Z,14.30
2019-03-20T15:58:57.701Z,14.30
2019-03-20T16:01:38.399Z,14.30
2019-03-20T16:04:18.993Z,14.30
2019-03-20T16:06:59.825Z,14.30
2019-03-20T16:09:40.493Z,14.20
2019-03-20T16:12:21.119Z,14.00
2019-03-20T16:15:01.971Z,14.00
2019-03-20T16:17:43.311Z,13.90
2019-03-20T16:20:24.007Z,13.90
2019-03-20T16:23:05.208Z,13.90
2019-03-20T16:25:46.368Z,14.00
2019-03-20T16:28:27.227Z,13.90
2019-03-20T16:31:08.104Z,13.90
2019-03-20T16:33:48.999Z,13.90
2019-03-20T16:36:29.798Z,14.00
2019-03-20T16:39:12.291Z,14.00
2019-03-20T16:41:53.376Z,14.00
2019-03-20T16:44:34.416Z,13.90
2019-03-20T16:47:14.818Z,14.00
2019-03-20T16:49:55.509Z,13.90
2019-03-20T16:52:36.649Z,13.80
2019-03-20T16:55:17.480Z,13.90
2019-03-20T16:57:57.955Z,13.80
2019-03-20T17:00:39.022Z,13.70
2019-03-20T17:03:19.495Z,13.70
2019-03-20T17:06:00.514Z,13.60
2019-03-20T17:08:41.206Z,13.70
2019-03-20T17:11:30.453Z,13.60
2019-03-20T17:14:04.135Z,13.60
2019-03-20T17:16:45.133Z,13.60
2019-03-20T17:19:26.426Z,13.50
2019-03-20T17:22:06.881Z,13.50
2019-03-20T17:24:47.764Z,13.50
2019-03-20T17:27:28.497Z,13.40
2019-03-20T17:30:09.693Z,13.50
2019-03-20T17:32:50.463Z,13.40
2019-03-20T17:35:30.989Z,13.50
2019-03-20T17:38:11.670Z,13.50
2019-03-20T17:40:52.644Z,13.50
2019-03-20T17:43:33.308Z,13.40
2019-03-20T17:46:13.837Z,13.40
2019-03-20T17:48:54.302Z,13.30
2019-03-20T17:51:35.081Z,13.30
2019-03-20T17:54:16.332Z,13.20
2019-03-20T17:56:57.545Z,13.20
2019-03-20T17:59:38.715Z,13.20
2019-03-20T18:02:23.930Z,13.20
2019-03-20T18:05:02.737Z,13.10
2019-03-20T18:07:43.727Z,13.10
2019-03-20T18:10:24.582Z,13.10
2019-03-20T18:13:05.327Z,13.10
2019-03-20T18:15:45.967Z,13.20
2019-03-20T18:18:27.472Z,13.20
2019-03-20T18:21:08.726Z,13.30
2019-03-20T18:23:49.344Z,13.40
2019-03-20T18:26:30.330Z,13.40
2019-03-20T18:29:10.995Z,13.40
2019-03-20T18:31:51.743Z,13.30
2019-03-20T18:34:32.168Z,13.30
2019-03-20T18:37:13.164Z,13.30
2019-03-20T18:39:54.065Z,13.20
2019-03-20T18:42:34.449Z,13.10
2019-03-20T18:45:15.468Z,13.10
2019-03-20T18:47:56.051Z,13.00
2019-03-20T18:50:36.893Z,13.00
2019-03-20T18:53:17.584Z,12.90
2019-03-20T18:55:58.388Z,12.80
2019-03-20T18:58:39.516Z,12.60
2019-03-20T19:01:20.234Z,12.50
2019-03-20T19:04:00.978Z,12.40
2019-03-20T19:06:41.957Z,12.30
2019-03-20T19:09:22.675Z,12.30
2019-03-20T19:12:08.448Z,12.20
2019-03-20T19:14:46.903Z,12.20
2019-03-20T19:17:27.520Z,12.00
2019-03-20T19:20:08.107Z,11.90
2019-03-20T19:22:48.851Z,11.90
2019-03-20T19:25:29.576Z,11.80
2019-03-20T19:28:10.543Z,11.70
2019-03-20T19:30:51.391Z,11.70
2019-03-20T19:33:32.119Z,11.70
2019-03-20T19:36:13.027Z,11.70
2019-03-20T19:38:53.595Z,11.70
2019-03-20T19:41:34.364Z,11.70
2019-03-20T19:44:15.187Z,11.60
2019-03-20T19:46:56.568Z,11.70
2019-03-20T19:49:37.028Z,11.70
2019-03-20T19:52:17.861Z,11.70
2019-03-20T19:54:58.409Z,11.70
2019-03-20T19:57:38.990Z,11.70
2019-03-20T20:00:19.780Z,11.70
2019-03-20T20:03:00.313Z,11.60
2019-03-20T20:05:40.758Z,11.60
2019-03-20T20:08:21.460Z,11.60
2019-03-20T20:11:02.295Z,11.50
2019-03-20T20:13:43.121Z,11.50
2019-03-20T20:16:23.895Z,11.50
2019-03-20T20:19:04.758Z,11.40
2019-03-20T20:21:45.639Z,11.40
2019-03-20T20:24:26.445Z,11.40
2019-03-20T20:27:07.380Z,11.40
2019-03-20T20:29:48.813Z,11.50
2019-03-20T20:32:29.636Z,11.50
2019-03-20T20:35:09.934Z,11.40
2019-03-20T20:37:51.480Z,11.50
2019-03-20T20:40:32.093Z,11.60
2019-03-20T20:43:13.442Z,11.60
2019-03-20T20:45:54.062Z,11.60
2019-03-20T20:48:34.595Z,11.40
2019-03-20T20:51:15.168Z,11.30
2019-03-20T20:53:56.211Z,11.30
2019-03-20T20:56:37.108Z,11.20
2019-03-20T20:59:17.976Z,11.20
2019-03-20T21:01:58.441Z,11.20
2019-03-20T21:04:39.264Z,11.20
2019-03-20T21:07:21.708Z,11.10
2019-03-20T21:10:02.924Z,11.00
2019-03-20T21:12:55.152Z,11.10
2019-03-20T21:15:26.442Z,11.20
2019-03-20T21:18:06.984Z,11.20
2019-03-20T21:20:47.615Z,11.20
2019-03-20T21:23:28.199Z,11.20
2019-03-20T21:26:08.672Z,11.10
2019-03-20T21:28:49.692Z,11.00
2019-03-20T21:31:30.844Z,10.90
2019-03-20T21:34:12.149Z,10.90
2019-03-20T21:36:53.502Z,10.80
2019-03-20T21:39:33.908Z,10.70
2019-03-20T21:42:14.364Z,10.70
2019-03-20T21:44:55.310Z,10.60
2019-03-20T21:47:36.458Z,10.50
2019-03-20T21:50:17.462Z,10.40
2019-03-20T21:52:57.862Z,10.20
2019-03-20T21:55:38.557Z,10.10
2019-03-20T21:58:19.289Z,10.00
2019-03-20T22:00:59.808Z,10.10
2019-03-20T22:03:40.606Z,10.10
2019-03-20T22:06:21.181Z,10.10
2019-03-20T22:09:01.753Z,10.10
2019-03-20T22:11:42.400Z,10.10
2019-03-20T22:14:23.543Z,9.90
2019-03-20T22:17:03.872Z,9.50
2019-03-20T22:19:44.604Z,9.40
2019-03-20T22:22:25.163Z,9.40
2019-03-20T22:25:06.108Z,9.30
2019-03-20T22:27:46.511Z,9.10
2019-03-20T22:30:27.328Z,9.20
2019-03-20T22:33:08.169Z,9.30
2019-03-20T22:35:48.935Z,9.20
2019-03-20T22:38:29.413Z,9.10
2019-03-20T22:41:09.981Z,9.10
2019-03-20T22:43:50.566Z,9.00
2019-03-20T22:46:31.603Z,9.00
2019-03-20T22:49:12.211Z,9.00
2019-03-20T22:51:52.973Z,9.00
2019-03-20T22:54:34.093Z,9.00
2019-03-20T22:57:14.388Z,9.00
2019-03-20T22:59:55.024Z,9.00
2019-03-20T23:02:35.764Z,9.00
2019-03-20T23:05:17.027Z,8.90
2019-03-20T23:07:57.579Z,8.90
2019-03-20T23:10:38.432Z,9.10
2019-03-20T23:13:19.505Z,9.10
2019-03-20T23:16:00.931Z,9.10
2019-03-20T23:18:41.770Z,9.10
2019-03-20T23:21:22.610Z,9.10
2019-03-20T23:24:03.162Z,9.10
2019-03-20T23:26:43.920Z,9.10
2019-03-20T23:29:24.918Z,9.20
2019-03-20T23:32:05.344Z,9.10
2019-03-20T23:34:45.802Z,9.00
2019-03-20T23:37:26.401Z,9.00
2019-03-20T23:40:07.242Z,9.10
2019-03-20T23:42:47.595Z,9.20
2019-03-20T23:45:28.263Z,9.30
2019-03-20T23:48:08.740Z,9.30
2019-03-20T23:50:49.708Z,9.30
2019-03-20T23:53:30.224Z,9.40
2019-03-20T23:56:11.207Z,9.50
2019-03-20T23:58:52.201Z,9.50
